sensor_id;sensor_type;location;lat;lon;timestamp;P1;durP1;ratioP1;P2;durP2;ratioP2
64571;SDS011;51155;51.984;21.208;2023-11-19T00:00:35;8.80;;;5.70;;
64571;SDS011;51155;51.984;21.208;2023-11-19T00:03:07;7.70;;;5.60;;
64571;SDS011;51155;51.984;21.208;2023-11-19T00:08:13;7.70;;;5.40;;
64571;SDS011;51155;51.984;21.208;2023-11-19T00:10:44;7.70;;;6.00;;
64571;SDS011;51155;51.984;21.208;2023-11-19T00:13:18;8.20;;;6.30;;
64571;SDS011;51155;51.984;21.208;2023-11-19T00:15:49;7.00;;;5.90;;
64571;SDS011;51155;51.984;21.208;2023-11-19T00:18:21;7.90;;;6.10;;
64571;SDS011;51155;51.984;21.208;2023-11-19T00:20:53;8.80;;;6.10;;
64571;SDS011;51155;51.984;21.208;2023-11-19T00:23:25;9.20;;;6.50;;
64571;SDS011;51155;51.984;21.208;2023-11-19T00:25:56;7.10;;;5.80;;
64571;SDS011;51155;51.984;21.208;2023-11-19T00:28:28;11.10;;;6.50;;
64571;SDS011;51155;51.984;21.208;2023-11-19T00:31:00;7.80;;;5.40;;
64571;SDS011;51155;51.984;21.208;2023-11-19T00:33:32;8.10;;;6.30;;
64571;SDS011;51155;51.984;21.208;2023-11-19T00:36:04;7.40;;;5.30;;
64571;SDS011;51155;51.984;21.208;2023-11-19T00:38:35;8.60;;;6.60;;
64571;SDS011;51155;51.984;21.208;2023-11-19T00:41:07;7.30;;;5.70;;
64571;SDS011;51155;51.984;21.208;2023-11-19T00:43:38;8.70;;;6.40;;
64571;SDS011;51155;51.984;21.208;2023-11-19T00:46:10;7.60;;;6.00;;
64571;SDS011;51155;51.984;21.208;2023-11-19T00:48:48;8.40;;;6.70;;
64571;SDS011;51155;51.984;21.208;2023-11-19T00:51:19;8.40;;;6.60;;
64571;SDS011;51155;51.984;21.208;2023-11-19T00:53:52;8.60;;;6.70;;
64571;SDS011;51155;51.984;21.208;2023-11-19T00:56:24;8.00;;;6.00;;
64571;SDS011;51155;51.984;21.208;2023-11-19T00:58:56;8.00;;;6.30;;
64571;SDS011;51155;51.984;21.208;2023-11-19T01:01:27;7.80;;;5.60;;
64571;SDS011;51155;51.984;21.208;2023-11-19T01:03:59;8.20;;;5.90;;
64571;SDS011;51155;51.984;21.208;2023-11-19T01:06:32;8.90;;;6.40;;
64571;SDS011;51155;51.984;21.208;2023-11-19T01:09:04;7.00;;;5.80;;
64571;SDS011;51155;51.984;21.208;2023-11-19T01:11:35;7.90;;;6.40;;
64571;SDS011;51155;51.984;21.208;2023-11-19T01:14:07;8.40;;;6.30;;
64571;SDS011;51155;51.984;21.208;2023-11-19T01:16:38;8.50;;;6.70;;
64571;SDS011;51155;51.984;21.208;2023-11-19T01:19:10;8.00;;;6.20;;
64571;SDS011;51155;51.984;21.208;2023-11-19T01:21:49;7.80;;;6.20;;
64571;SDS011;51155;51.984;21.208;2023-11-19T01:24:21;6.60;;;5.50;;
64571;SDS011;51155;51.984;21.208;2023-11-19T01:26:53;7.00;;;6.00;;
64571;SDS011;51155;51.984;21.208;2023-11-19T01:29:25;7.90;;;6.50;;
64571;SDS011;51155;51.984;21.208;2023-11-19T01:31:56;8.00;;;5.70;;
64571;SDS011;51155;51.984;21.208;2023-11-19T01:34:28;8.40;;;6.00;;
64571;SDS011;51155;51.984;21.208;2023-11-19T01:37:00;8.20;;;5.70;;
64571;SDS011;51155;51.984;21.208;2023-11-19T01:39:31;6.90;;;6.00;;
64571;SDS011;51155;51.984;21.208;2023-11-19T01:42:03;8.70;;;6.10;;
64571;SDS011;51155;51.984;21.208;2023-11-19T01:44:35;9.30;;;6.30;;
64571;SDS011;51155;51.984;21.208;2023-11-19T01:47:08;8.90;;;6.20;;
64571;SDS011;51155;51.984;21.208;2023-11-19T01:52:11;8.10;;;5.60;;
64571;SDS011;51155;51.984;21.208;2023-11-19T01:54:42;11.10;;;6.60;;
64571;SDS011;51155;51.984;21.208;2023-11-19T01:57:14;7.30;;;5.70;;
64571;SDS011;51155;51.984;21.208;2023-11-19T01:59:46;7.50;;;6.10;;
64571;SDS011;51155;51.984;21.208;2023-11-19T02:02:18;7.60;;;6.30;;
64571;SDS011;51155;51.984;21.208;2023-11-19T02:04:53;10.60;;;6.60;;
64571;SDS011;51155;51.984;21.208;2023-11-19T02:07:25;8.60;;;6.30;;
64571;SDS011;51155;51.984;21.208;2023-11-19T02:09:57;10.20;;;6.30;;
64571;SDS011;51155;51.984;21.208;2023-11-19T02:12:32;8.20;;;6.20;;
64571;SDS011;51155;51.984;21.208;2023-11-19T02:15:07;9.50;;;6.20;;
64571;SDS011;51155;51.984;21.208;2023-11-19T02:17:39;8.10;;;6.20;;
64571;SDS011;51155;51.984;21.208;2023-11-19T02:20:11;8.50;;;6.90;;
64571;SDS011;51155;51.984;21.208;2023-11-19T02:22:46;8.90;;;6.60;;
64571;SDS011;51155;51.984;21.208;2023-11-19T02:25:28;9.80;;;6.80;;
64571;SDS011;51155;51.984;21.208;2023-11-19T02:28:02;9.90;;;7.00;;
64571;SDS011;51155;51.984;21.208;2023-11-19T02:30:34;8.80;;;6.70;;
64571;SDS011;51155;51.984;21.208;2023-11-19T02:33:06;7.70;;;6.00;;
64571;SDS011;51155;51.984;21.208;2023-11-19T02:35:38;8.10;;;6.10;;
64571;SDS011;51155;51.984;21.208;2023-11-19T02:38:09;9.90;;;6.90;;
64571;SDS011;51155;51.984;21.208;2023-11-19T02:40:42;8.50;;;6.10;;
64571;SDS011;51155;51.984;21.208;2023-11-19T02:43:14;8.30;;;6.40;;
64571;SDS011;51155;51.984;21.208;2023-11-19T02:45:45;8.60;;;6.60;;
64571;SDS011;51155;51.984;21.208;2023-11-19T02:48:17;7.80;;;6.40;;
64571;SDS011;51155;51.984;21.208;2023-11-19T02:50:49;8.20;;;6.10;;
64571;SDS011;51155;51.984;21.208;2023-11-19T02:53:21;9.70;;;6.60;;
64571;SDS011;51155;51.984;21.208;2023-11-19T02:55:54;10.10;;;7.30;;
64571;SDS011;51155;51.984;21.208;2023-11-19T02:58:32;9.40;;;6.20;;
64571;SDS011;51155;51.984;21.208;2023-11-19T03:01:04;9.00;;;6.80;;
64571;SDS011;51155;51.984;21.208;2023-11-19T03:03:44;8.50;;;6.30;;
64571;SDS011;51155;51.984;21.208;2023-11-19T03:06:21;8.80;;;6.60;;
64571;SDS011;51155;51.984;21.208;2023-11-19T03:08:55;9.40;;;6.70;;
64571;SDS011;51155;51.984;21.208;2023-11-19T03:11:27;8.60;;;6.40;;
64571;SDS011;51155;51.984;21.208;2023-11-19T03:13:59;9.10;;;6.10;;
64571;SDS011;51155;51.984;21.208;2023-11-19T03:16:30;9.30;;;6.70;;
64571;SDS011;51155;51.984;21.208;2023-11-19T03:19:02;9.30;;;6.40;;
64571;SDS011;51155;51.984;21.208;2023-11-19T03:21:36;8.80;;;6.90;;
64571;SDS011;51155;51.984;21.208;2023-11-19T03:24:08;8.50;;;6.90;;
64571;SDS011;51155;51.984;21.208;2023-11-19T03:26:40;10.10;;;7.10;;
64571;SDS011;51155;51.984;21.208;2023-11-19T03:29:11;11.80;;;7.40;;
64571;SDS011;51155;51.984;21.208;2023-11-19T03:31:43;8.90;;;6.90;;
64571;SDS011;51155;51.984;21.208;2023-11-19T03:34:16;9.90;;;7.10;;
64571;SDS011;51155;51.984;21.208;2023-11-19T03:36:47;8.50;;;6.40;;
64571;SDS011;51155;51.984;21.208;2023-11-19T03:39:20;10.30;;;7.00;;
64571;SDS011;51155;51.984;21.208;2023-11-19T03:41:51;10.40;;;7.20;;
64571;SDS011;51155;51.984;21.208;2023-11-19T03:44:23;9.60;;;7.40;;
64571;SDS011;51155;51.984;21.208;2023-11-19T03:46:55;9.40;;;7.40;;
64571;SDS011;51155;51.984;21.208;2023-11-19T03:49:26;10.10;;;6.90;;
64571;SDS011;51155;51.984;21.208;2023-11-19T03:51:58;9.50;;;6.90;;
64571;SDS011;51155;51.984;21.208;2023-11-19T03:54:29;9.20;;;7.00;;
64571;SDS011;51155;51.984;21.208;2023-11-19T03:57:01;9.00;;;7.10;;
64571;SDS011;51155;51.984;21.208;2023-11-19T03:59:34;9.10;;;6.70;;
64571;SDS011;51155;51.984;21.208;2023-11-19T04:02:07;9.30;;;7.10;;
64571;SDS011;51155;51.984;21.208;2023-11-19T04:04:38;9.00;;;7.20;;
64571;SDS011;51155;51.984;21.208;2023-11-19T04:07:10;8.70;;;6.70;;
64571;SDS011;51155;51.984;21.208;2023-11-19T04:09:42;8.40;;;6.50;;
64571;SDS011;51155;51.984;21.208;2023-11-19T04:12:13;10.30;;;7.40;;
64571;SDS011;51155;51.984;21.208;2023-11-19T04:14:45;9.70;;;7.10;;
64571;SDS011;51155;51.984;21.208;2023-11-19T04:17:17;8.90;;;6.90;;
64571;SDS011;51155;51.984;21.208;2023-11-19T04:19:48;9.30;;;6.70;;
64571;SDS011;51155;51.984;21.208;2023-11-19T04:22:20;10.60;;;7.40;;
64571;SDS011;51155;51.984;21.208;2023-11-19T04:24:52;8.80;;;7.10;;
64571;SDS011;51155;51.984;21.208;2023-11-19T04:27:23;10.30;;;7.10;;
64571;SDS011;51155;51.984;21.208;2023-11-19T04:29:55;9.10;;;6.90;;
64571;SDS011;51155;51.984;21.208;2023-11-19T04:32:28;9.50;;;6.70;;
64571;SDS011;51155;51.984;21.208;2023-11-19T04:34:59;9.10;;;6.20;;
64571;SDS011;51155;51.984;21.208;2023-11-19T04:37:31;10.10;;;7.70;;
64571;SDS011;51155;51.984;21.208;2023-11-19T04:40:03;9.60;;;6.90;;
64571;SDS011;51155;51.984;21.208;2023-11-19T04:42:35;8.50;;;6.80;;
64571;SDS011;51155;51.984;21.208;2023-11-19T04:45:07;9.40;;;6.70;;
64571;SDS011;51155;51.984;21.208;2023-11-19T04:47:44;9.70;;;6.90;;
64571;SDS011;51155;51.984;21.208;2023-11-19T04:50:16;9.90;;;7.20;;
64571;SDS011;51155;51.984;21.208;2023-11-19T04:52:47;10.10;;;7.10;;
64571;SDS011;51155;51.984;21.208;2023-11-19T04:55:19;9.70;;;7.10;;
64571;SDS011;51155;51.984;21.208;2023-11-19T04:57:50;9.80;;;7.10;;
64571;SDS011;51155;51.984;21.208;2023-11-19T05:00:25;10.80;;;6.40;;
64571;SDS011;51155;51.984;21.208;2023-11-19T05:02:57;9.50;;;7.10;;
64571;SDS011;51155;51.984;21.208;2023-11-19T05:05:29;10.40;;;7.00;;
64571;SDS011;51155;51.984;21.208;2023-11-19T05:08:00;9.20;;;6.70;;
64571;SDS011;51155;51.984;21.208;2023-11-19T05:10:32;10.20;;;7.00;;
64571;SDS011;51155;51.984;21.208;2023-11-19T05:13:04;9.10;;;6.70;;
64571;SDS011;51155;51.984;21.208;2023-11-19T05:15:36;9.30;;;6.50;;
64571;SDS011;51155;51.984;21.208;2023-11-19T05:18:07;8.60;;;6.30;;
64571;SDS011;51155;51.984;21.208;2023-11-19T05:20:40;8.80;;;6.10;;
64571;SDS011;51155;51.984;21.208;2023-11-19T05:23:11;8.90;;;6.60;;
64571;SDS011;51155;51.984;21.208;2023-11-19T05:25:46;9.40;;;6.70;;
64571;SDS011;51155;51.984;21.208;2023-11-19T05:28:19;8.30;;;6.10;;
64571;SDS011;51155;51.984;21.208;2023-11-19T05:30:50;8.70;;;6.00;;
64571;SDS011;51155;51.984;21.208;2023-11-19T05:33:22;7.30;;;5.40;;
64571;SDS011;51155;51.984;21.208;2023-11-19T05:35:54;8.90;;;6.00;;
64571;SDS011;51155;51.984;21.208;2023-11-19T05:38:25;8.10;;;5.90;;
64571;SDS011;51155;51.984;21.208;2023-11-19T05:40:57;8.40;;;6.20;;
64571;SDS011;51155;51.984;21.208;2023-11-19T05:43:28;7.70;;;5.40;;
64571;SDS011;51155;51.984;21.208;2023-11-19T05:46:00;9.50;;;5.30;;
64571;SDS011;51155;51.984;21.208;2023-11-19T05:48:33;8.30;;;5.70;;
64571;SDS011;51155;51.984;21.208;2023-11-19T05:51:05;7.90;;;5.40;;
64571;SDS011;51155;51.984;21.208;2023-11-19T05:53:37;7.20;;;5.80;;
64571;SDS011;51155;51.984;21.208;2023-11-19T05:56:08;7.80;;;5.90;;
64571;SDS011;51155;51.984;21.208;2023-11-19T05:58:41;8.50;;;5.50;;
64571;SDS011;51155;51.984;21.208;2023-11-19T06:01:13;7.60;;;5.40;;
64571;SDS011;51155;51.984;21.208;2023-11-19T06:03:44;8.10;;;5.80;;
64571;SDS011;51155;51.984;21.208;2023-11-19T06:06:21;8.70;;;5.50;;
64571;SDS011;51155;51.984;21.208;2023-11-19T06:08:53;7.00;;;5.40;;
64571;SDS011;51155;51.984;21.208;2023-11-19T06:11:24;7.10;;;5.40;;
64571;SDS011;51155;51.984;21.208;2023-11-19T06:13:58;7.90;;;5.30;;
64571;SDS011;51155;51.984;21.208;2023-11-19T06:16:30;6.70;;;5.10;;
64571;SDS011;51155;51.984;21.208;2023-11-19T06:19:01;7.00;;;4.80;;
64571;SDS011;51155;51.984;21.208;2023-11-19T06:21:33;6.40;;;4.70;;
64571;SDS011;51155;51.984;21.208;2023-11-19T06:24:07;8.00;;;5.20;;
64571;SDS011;51155;51.984;21.208;2023-11-19T06:26:40;5.90;;;4.80;;
64571;SDS011;51155;51.984;21.208;2023-11-19T06:29:12;7.10;;;5.10;;
64571;SDS011;51155;51.984;21.208;2023-11-19T06:31:43;6.30;;;4.70;;
64571;SDS011;51155;51.984;21.208;2023-11-19T06:34:15;7.00;;;5.10;;
64571;SDS011;51155;51.984;21.208;2023-11-19T06:36:47;7.70;;;5.50;;
64571;SDS011;51155;51.984;21.208;2023-11-19T06:39:20;6.90;;;4.90;;
64571;SDS011;51155;51.984;21.208;2023-11-19T06:41:51;5.70;;;4.70;;
64571;SDS011;51155;51.984;21.208;2023-11-19T06:44:23;6.80;;;5.20;;
64571;SDS011;51155;51.984;21.208;2023-11-19T06:49:27;6.20;;;4.50;;
64571;SDS011;51155;51.984;21.208;2023-11-19T06:51:59;5.90;;;4.50;;
64571;SDS011;51155;51.984;21.208;2023-11-19T06:54:31;7.10;;;5.00;;
64571;SDS011;51155;51.984;21.208;2023-11-19T06:57:03;6.00;;;4.70;;
64571;SDS011;51155;51.984;21.208;2023-11-19T06:59:36;7.60;;;5.10;;
64571;SDS011;51155;51.984;21.208;2023-11-19T07:02:08;6.80;;;4.70;;
64571;SDS011;51155;51.984;21.208;2023-11-19T07:04:40;5.60;;;4.10;;
64571;SDS011;51155;51.984;21.208;2023-11-19T07:07:12;6.20;;;4.60;;
64571;SDS011;51155;51.984;21.208;2023-11-19T07:09:45;5.80;;;4.20;;
64571;SDS011;51155;51.984;21.208;2023-11-19T07:12:17;6.40;;;4.70;;
64571;SDS011;51155;51.984;21.208;2023-11-19T07:14:49;6.20;;;4.60;;
64571;SDS011;51155;51.984;21.208;2023-11-19T07:17:20;7.10;;;4.80;;
64571;SDS011;51155;51.984;21.208;2023-11-19T07:19:52;6.00;;;4.60;;
64571;SDS011;51155;51.984;21.208;2023-11-19T07:22:24;5.90;;;4.60;;
64571;SDS011;51155;51.984;21.208;2023-11-19T07:24:55;6.70;;;4.80;;
64571;SDS011;51155;51.984;21.208;2023-11-19T07:27:27;6.20;;;4.50;;
64571;SDS011;51155;51.984;21.208;2023-11-19T07:29:59;6.10;;;4.90;;
64571;SDS011;51155;51.984;21.208;2023-11-19T07:32:30;5.60;;;4.50;;
64571;SDS011;51155;51.984;21.208;2023-11-19T07:35:02;6.80;;;4.20;;
64571;SDS011;51155;51.984;21.208;2023-11-19T07:37:35;6.00;;;4.20;;
64571;SDS011;51155;51.984;21.208;2023-11-19T07:40:08;9.20;;;4.40;;
64571;SDS011;51155;51.984;21.208;2023-11-19T07:42:39;9.50;;;3.80;;
64571;SDS011;51155;51.984;21.208;2023-11-19T07:45:11;6.50;;;4.10;;
64571;SDS011;51155;51.984;21.208;2023-11-19T07:47:43;6.50;;;4.20;;
64571;SDS011;51155;51.984;21.208;2023-11-19T07:50:16;6.00;;;4.50;;
64571;SDS011;51155;51.984;21.208;2023-11-19T07:52:50;6.50;;;4.30;;
64571;SDS011;51155;51.984;21.208;2023-11-19T07:55:22;6.00;;;4.20;;
64571;SDS011;51155;51.984;21.208;2023-11-19T07:57:54;6.20;;;4.20;;
64571;SDS011;51155;51.984;21.208;2023-11-19T08:00:25;6.20;;;4.20;;
64571;SDS011;51155;51.984;21.208;2023-11-19T08:02:57;5.80;;;4.00;;
64571;SDS011;51155;51.984;21.208;2023-11-19T08:05:29;6.60;;;4.30;;
64571;SDS011;51155;51.984;21.208;2023-11-19T08:08:01;6.20;;;4.30;;
64571;SDS011;51155;51.984;21.208;2023-11-19T08:10:33;5.40;;;4.10;;
64571;SDS011;51155;51.984;21.208;2023-11-19T08:13:05;6.80;;;4.40;;
64571;SDS011;51155;51.984;21.208;2023-11-19T08:15:37;5.60;;;4.00;;
64571;SDS011;51155;51.984;21.208;2023-11-19T08:18:09;5.70;;;4.20;;
64571;SDS011;51155;51.984;21.208;2023-11-19T08:20:40;6.20;;;4.30;;
64571;SDS011;51155;51.984;21.208;2023-11-19T08:23:14;6.80;;;4.30;;
64571;SDS011;51155;51.984;21.208;2023-11-19T08:25:46;6.40;;;4.20;;
64571;SDS011;51155;51.984;21.208;2023-11-19T08:28:17;6.30;;;3.90;;
64571;SDS011;51155;51.984;21.208;2023-11-19T08:30:49;6.10;;;4.30;;
64571;SDS011;51155;51.984;21.208;2023-11-19T08:33:21;6.10;;;4.10;;
64571;SDS011;51155;51.984;21.208;2023-11-19T08:35:54;6.20;;;4.10;;
64571;SDS011;51155;51.984;21.208;2023-11-19T08:38:25;6.60;;;4.50;;
64571;SDS011;51155;51.984;21.208;2023-11-19T08:41:00;7.30;;;4.30;;
64571;SDS011;51155;51.984;21.208;2023-11-19T08:43:32;5.80;;;4.10;;
64571;SDS011;51155;51.984;21.208;2023-11-19T08:46:08;5.50;;;3.90;;
64571;SDS011;51155;51.984;21.208;2023-11-19T08:48:40;5.60;;;4.10;;
64571;SDS011;51155;51.984;21.208;2023-11-19T08:51:12;5.70;;;4.00;;
64571;SDS011;51155;51.984;21.208;2023-11-19T08:53:44;6.50;;;4.30;;
64571;SDS011;51155;51.984;21.208;2023-11-19T08:56:15;7.20;;;4.40;;
64571;SDS011;51155;51.984;21.208;2023-11-19T08:58:47;6.00;;;3.90;;
64571;SDS011;51155;51.984;21.208;2023-11-19T09:01:19;5.40;;;4.20;;
64571;SDS011;51155;51.984;21.208;2023-11-19T09:03:50;5.60;;;4.20;;
64571;SDS011;51155;51.984;21.208;2023-11-19T09:06:22;7.10;;;4.50;;
64571;SDS011;51155;51.984;21.208;2023-11-19T09:08:53;8.10;;;4.40;;
64571;SDS011;51155;51.984;21.208;2023-11-19T09:11:29;5.90;;;4.10;;
64571;SDS011;51155;51.984;21.208;2023-11-19T09:14:01;5.70;;;3.80;;
64571;SDS011;51155;51.984;21.208;2023-11-19T09:16:33;7.50;;;4.10;;
64571;SDS011;51155;51.984;21.208;2023-11-19T09:19:04;6.30;;;3.80;;
64571;SDS011;51155;51.984;21.208;2023-11-19T09:21:37;8.70;;;4.30;;
64571;SDS011;51155;51.984;21.208;2023-11-19T09:24:10;7.00;;;4.10;;
64571;SDS011;51155;51.984;21.208;2023-11-19T09:26:45;5.90;;;4.30;;
64571;SDS011;51155;51.984;21.208;2023-11-19T09:29:17;11.80;;;4.50;;
64571;SDS011;51155;51.984;21.208;2023-11-19T09:31:49;5.30;;;3.80;;
64571;SDS011;51155;51.984;21.208;2023-11-19T09:34:20;7.20;;;3.90;;
64571;SDS011;51155;51.984;21.208;2023-11-19T09:36:52;6.80;;;4.10;;
64571;SDS011;51155;51.984;21.208;2023-11-19T09:39:24;5.90;;;4.00;;
64571;SDS011;51155;51.984;21.208;2023-11-19T09:41:57;7.60;;;4.50;;
64571;SDS011;51155;51.984;21.208;2023-11-19T09:44:29;9.80;;;4.00;;
64571;SDS011;51155;51.984;21.208;2023-11-19T09:47:01;8.90;;;4.30;;
64571;SDS011;51155;51.984;21.208;2023-11-19T09:49:33;8.40;;;3.80;;
64571;SDS011;51155;51.984;21.208;2023-11-19T09:52:07;8.70;;;4.40;;
64571;SDS011;51155;51.984;21.208;2023-11-19T09:54:39;6.70;;;4.70;;
64571;SDS011;51155;51.984;21.208;2023-11-19T09:57:10;9.60;;;4.80;;
64571;SDS011;51155;51.984;21.208;2023-11-19T09:59:43;7.60;;;4.50;;
64571;SDS011;51155;51.984;21.208;2023-11-19T10:02:16;14.20;;;4.80;;
64571;SDS011;51155;51.984;21.208;2023-11-19T10:04:48;8.70;;;4.50;;
64571;SDS011;51155;51.984;21.208;2023-11-19T10:07:21;18.30;;;4.50;;
64571;SDS011;51155;51.984;21.208;2023-11-19T10:09:57;13.10;;;4.30;;
64571;SDS011;51155;51.984;21.208;2023-11-19T10:12:28;10.40;;;4.40;;
64571;SDS011;51155;51.984;21.208;2023-11-19T10:15:00;8.80;;;4.70;;
64571;SDS011;51155;51.984;21.208;2023-11-19T10:17:33;12.90;;;4.70;;
64571;SDS011;51155;51.984;21.208;2023-11-19T10:20:06;6.60;;;4.30;;
64571;SDS011;51155;51.984;21.208;2023-11-19T10:25:39;8.90;;;4.10;;
64571;SDS011;51155;51.984;21.208;2023-11-19T10:28:10;9.50;;;4.10;;
64571;SDS011;51155;51.984;21.208;2023-11-19T10:30:42;7.90;;;4.40;;
64571;SDS011;51155;51.984;21.208;2023-11-19T10:33:14;8.90;;;4.30;;
64571;SDS011;51155;51.984;21.208;2023-11-19T10:35:56;8.80;;;4.20;;
64571;SDS011;51155;51.984;21.208;2023-11-19T10:38:31;9.20;;;4.80;;
64571;SDS011;51155;51.984;21.208;2023-11-19T10:41:03;7.30;;;4.30;;
64571;SDS011;51155;51.984;21.208;2023-11-19T10:43:44;7.90;;;4.40;;
64571;SDS011;51155;51.984;21.208;2023-11-19T10:46:16;6.80;;;4.40;;
64571;SDS011;51155;51.984;21.208;2023-11-19T10:48:52;8.80;;;4.40;;
64571;SDS011;51155;51.984;21.208;2023-11-19T10:51:24;7.30;;;4.40;;
64571;SDS011;51155;51.984;21.208;2023-11-19T10:53:57;8.70;;;4.10;;
64571;SDS011;51155;51.984;21.208;2023-11-19T10:56:33;6.00;;;4.20;;
64571;SDS011;51155;51.984;21.208;2023-11-19T10:59:05;6.90;;;4.20;;
64571;SDS011;51155;51.984;21.208;2023-11-19T11:01:45;8.30;;;4.30;;
64571;SDS011;51155;51.984;21.208;2023-11-19T11:04:22;6.60;;;4.30;;
64571;SDS011;51155;51.984;21.208;2023-11-19T11:06:54;6.30;;;4.00;;
64571;SDS011;51155;51.984;21.208;2023-11-19T11:09:27;5.70;;;4.00;;
64571;SDS011;51155;51.984;21.208;2023-11-19T11:11:59;9.00;;;4.20;;
64571;SDS011;51155;51.984;21.208;2023-11-19T11:14:32;6.10;;;4.20;;
64571;SDS011;51155;51.984;21.208;2023-11-19T11:17:04;7.40;;;4.10;;
64571;SDS011;51155;51.984;21.208;2023-11-19T11:19:39;8.90;;;4.60;;
64571;SDS011;51155;51.984;21.208;2023-11-19T11:22:14;6.00;;;4.00;;
64571;SDS011;51155;51.984;21.208;2023-11-19T11:25:19;9.10;;;4.50;;
64571;SDS011;51155;51.984;21.208;2023-11-19T11:28:05;9.00;;;4.40;;
64571;SDS011;51155;51.984;21.208;2023-11-19T11:34:00;8.20;;;4.20;;
64571;SDS011;51155;51.984;21.208;2023-11-19T11:36:51;9.10;;;4.40;;
64571;SDS011;51155;51.984;21.208;2023-11-19T11:39:25;9.80;;;4.30;;
64571;SDS011;51155;51.984;21.208;2023-11-19T11:42:30;8.30;;;4.80;;
64571;SDS011;51155;51.984;21.208;2023-11-19T11:45:05;10.70;;;4.50;;
64571;SDS011;51155;51.984;21.208;2023-11-19T11:50:18;8.00;;;4.40;;
64571;SDS011;51155;51.984;21.208;2023-11-19T11:55:52;8.40;;;4.20;;
64571;SDS011;51155;51.984;21.208;2023-11-19T11:58:29;9.10;;;4.40;;
64571;SDS011;51155;51.984;21.208;2023-11-19T12:01:04;9.20;;;4.30;;
64571;SDS011;51155;51.984;21.208;2023-11-19T12:03:37;7.70;;;4.70;;
64571;SDS011;51155;51.984;21.208;2023-11-19T12:06:09;7.60;;;4.70;;
64571;SDS011;51155;51.984;21.208;2023-11-19T12:11:17;8.90;;;4.30;;
64571;SDS011;51155;51.984;21.208;2023-11-19T12:13:56;6.20;;;4.20;;
64571;SDS011;51155;51.984;21.208;2023-11-19T12:16:33;10.90;;;4.70;;
64571;SDS011;51155;51.984;21.208;2023-11-19T12:19:09;8.10;;;4.70;;
64571;SDS011;51155;51.984;21.208;2023-11-19T12:21:41;7.50;;;4.40;;
64571;SDS011;51155;51.984;21.208;2023-11-19T12:24:13;6.90;;;4.60;;
64571;SDS011;51155;51.984;21.208;2023-11-19T12:26:45;7.20;;;4.00;;
64571;SDS011;51155;51.984;21.208;2023-11-19T12:29:19;8.30;;;5.10;;
64571;SDS011;51155;51.984;21.208;2023-11-19T12:31:55;7.90;;;4.60;;
64571;SDS011;51155;51.984;21.208;2023-11-19T12:34:45;9.30;;;4.80;;
64571;SDS011;51155;51.984;21.208;2023-11-19T12:37:17;11.10;;;5.10;;
64571;SDS011;51155;51.984;21.208;2023-11-19T12:39:48;12.80;;;5.20;;
64571;SDS011;51155;51.984;21.208;2023-11-19T12:42:20;12.30;;;4.90;;
64571;SDS011;51155;51.984;21.208;2023-11-19T12:44:55;11.70;;;5.20;;
64571;SDS011;51155;51.984;21.208;2023-11-19T12:47:27;16.20;;;5.60;;
64571;SDS011;51155;51.984;21.208;2023-11-19T12:49:59;12.90;;;6.00;;
64571;SDS011;51155;51.984;21.208;2023-11-19T12:52:31;12.50;;;6.50;;
64571;SDS011;51155;51.984;21.208;2023-11-19T12:55:03;11.70;;;5.30;;
64571;SDS011;51155;51.984;21.208;2023-11-19T13:00:21;10.40;;;5.00;;
64571;SDS011;51155;51.984;21.208;2023-11-19T13:02:54;10.30;;;5.20;;
64571;SDS011;51155;51.984;21.208;2023-11-19T13:05:28;13.50;;;5.90;;
64571;SDS011;51155;51.984;21.208;2023-11-19T13:08:03;11.40;;;5.20;;
64571;SDS011;51155;51.984;21.208;2023-11-19T13:13:20;14.30;;;5.30;;
64571;SDS011;51155;51.984;21.208;2023-11-19T13:15:52;10.70;;;5.30;;
64571;SDS011;51155;51.984;21.208;2023-11-19T13:18:23;11.20;;;5.60;;
64571;SDS011;51155;51.984;21.208;2023-11-19T13:21:14;11.30;;;5.70;;
64571;SDS011;51155;51.984;21.208;2023-11-19T13:23:46;11.30;;;5.40;;
64571;SDS011;51155;51.984;21.208;2023-11-19T13:26:17;10.00;;;5.10;;
64571;SDS011;51155;51.984;21.208;2023-11-19T13:28:49;10.10;;;5.00;;
64571;SDS011;51155;51.984;21.208;2023-11-19T13:31:21;8.20;;;5.10;;
64571;SDS011;51155;51.984;21.208;2023-11-19T13:33:54;9.00;;;5.30;;
64571;SDS011;51155;51.984;21.208;2023-11-19T13:36:26;10.60;;;5.30;;
64571;SDS011;51155;51.984;21.208;2023-11-19T13:38:57;11.30;;;5.30;;
64571;SDS011;51155;51.984;21.208;2023-11-19T13:41:31;8.20;;;5.20;;
64571;SDS011;51155;51.984;21.208;2023-11-19T13:44:03;10.90;;;5.20;;
64571;SDS011;51155;51.984;21.208;2023-11-19T13:46:35;8.40;;;5.50;;
64571;SDS011;51155;51.984;21.208;2023-11-19T13:49:06;10.30;;;5.10;;
64571;SDS011;51155;51.984;21.208;2023-11-19T13:51:38;7.30;;;4.70;;
64571;SDS011;51155;51.984;21.208;2023-11-19T13:54:10;7.70;;;4.70;;
64571;SDS011;51155;51.984;21.208;2023-11-19T13:56:42;9.80;;;5.30;;
64571;SDS011;51155;51.984;21.208;2023-11-19T13:59:17;9.50;;;4.90;;
64571;SDS011;51155;51.984;21.208;2023-11-19T14:01:48;10.90;;;4.80;;
64571;SDS011;51155;51.984;21.208;2023-11-19T14:04:20;7.20;;;4.80;;
64571;SDS011;51155;51.984;21.208;2023-11-19T14:06:52;6.30;;;5.00;;
64571;SDS011;51155;51.984;21.208;2023-11-19T14:09:26;7.90;;;4.80;;
64571;SDS011;51155;51.984;21.208;2023-11-19T14:11:58;7.70;;;4.70;;
64571;SDS011;51155;51.984;21.208;2023-11-19T14:14:30;12.50;;;5.10;;
64571;SDS011;51155;51.984;21.208;2023-11-19T14:17:01;9.30;;;4.80;;
64571;SDS011;51155;51.984;21.208;2023-11-19T14:19:37;8.10;;;4.80;;
64571;SDS011;51155;51.984;21.208;2023-11-19T14:22:10;10.80;;;4.80;;
64571;SDS011;51155;51.984;21.208;2023-11-19T14:24:43;7.60;;;4.20;;
64571;SDS011;51155;51.984;21.208;2023-11-19T14:27:14;7.60;;;4.90;;
64571;SDS011;51155;51.984;21.208;2023-11-19T14:29:46;8.80;;;4.70;;
64571;SDS011;51155;51.984;21.208;2023-11-19T14:32:17;7.90;;;5.30;;
64571;SDS011;51155;51.984;21.208;2023-11-19T14:34:50;8.80;;;4.40;;
64571;SDS011;51155;51.984;21.208;2023-11-19T14:37:21;11.10;;;4.90;;
64571;SDS011;51155;51.984;21.208;2023-11-19T14:39:53;8.30;;;4.50;;
64571;SDS011;51155;51.984;21.208;2023-11-19T14:42:25;8.00;;;4.90;;
64571;SDS011;51155;51.984;21.208;2023-11-19T14:44:57;8.50;;;4.90;;
64571;SDS011;51155;51.984;21.208;2023-11-19T14:47:28;9.40;;;5.10;;
64571;SDS011;51155;51.984;21.208;2023-11-19T14:50:01;7.30;;;4.40;;
64571;SDS011;51155;51.984;21.208;2023-11-19T14:52:32;8.90;;;5.40;;
64571;SDS011;51155;51.984;21.208;2023-11-19T14:55:04;7.40;;;4.60;;
64571;SDS011;51155;51.984;21.208;2023-11-19T14:57:36;8.20;;;4.70;;
64571;SDS011;51155;51.984;21.208;2023-11-19T15:00:11;7.00;;;4.70;;
64571;SDS011;51155;51.984;21.208;2023-11-19T15:02:46;7.40;;;4.20;;
64571;SDS011;51155;51.984;21.208;2023-11-19T15:05:17;8.10;;;5.10;;
64571;SDS011;51155;51.984;21.208;2023-11-19T15:07:49;7.20;;;4.50;;
64571;SDS011;51155;51.984;21.208;2023-11-19T15:10:21;7.70;;;4.80;;
64571;SDS011;51155;51.984;21.208;2023-11-19T15:12:52;8.20;;;4.70;;
64571;SDS011;51155;51.984;21.208;2023-11-19T15:15:25;7.70;;;4.70;;
64571;SDS011;51155;51.984;21.208;2023-11-19T15:17:59;7.80;;;4.50;;
64571;SDS011;51155;51.984;21.208;2023-11-19T15:20:32;7.20;;;4.90;;
64571;SDS011;51155;51.984;21.208;2023-11-19T15:23:03;8.00;;;4.90;;
64571;SDS011;51155;51.984;21.208;2023-11-19T15:25:38;9.30;;;4.70;;
64571;SDS011;51155;51.984;21.208;2023-11-19T15:28:10;7.10;;;4.70;;
64571;SDS011;51155;51.984;21.208;2023-11-19T15:30:42;6.90;;;4.90;;
64571;SDS011;51155;51.984;21.208;2023-11-19T15:33:13;8.30;;;5.40;;